Time;durP1;ratioP1;P1;durP2;ratioP2;P2;SDS_P1;SDS_P2;PMS_P1;PMS_P2;Temp;Humidity;BMP_temperature;BMP_pressure;BME280_temperature;BME280_humidity;BME280_pressure;Samples;Min_cycle;Max_cycle;Signal;HPM_P1;HPM_P2
2022/06/15 00:00:39;;;;;;;;;2.00;2.00;;;;;;;;5072031;28;45449;-72
2022/06/15 00:03:04;;;;;;;;;2.00;2.00;;;;;;;;5058463;28;46135;-72
2022/06/15 00:05:30;;;;;;;;;2.00;2.00;;;;;;;;5070115;27;45479;-72
2022/06/15 00:07:55;;;;;;;;;4.00;2.33;;;;;;;;5068751;28;46103;-71
2022/06/15 00:10:21;;;;;;;;;2.00;2.00;;;;;;;;5070311;27;45374;-71
2022/06/15 00:12:47;;;;;;;;;2.33;2.33;;;;;;;;5072241;27;45697;-72
2022/06/15 00:20:15;;;;;;;;;2.00;2.00;;;;;;;;5012904;28;45984;-71
2022/06/15 00:22:41;;;;;;;;;2.33;2.00;;;;;;;;5013479;28;45382;-72
2022/06/15 00:25:07;;;;;;;;;2.67;2.67;;;;;;;;5013301;28;45462;-72
2022/06/15 00:27:32;;;;;;;;;2.00;2.00;;;;;;;;5013794;28;45246;-72
2022/06/15 00:29:58;;;;;;;;;3.33;2.00;;;;;;;;5013744;28;45424;-72
2022/06/15 00:32:23;;;;;;;;;1.67;1.67;;;;;;;;5015526;28;45307;-72
2022/06/15 00:34:48;;;;;;;;;1.00;1.00;;;;;;;;5013282;28;45454;-72
2022/06/15 00:37:13;;;;;;;;;1.67;1.67;;;;;;;;5013755;28;45446;-72
2022/06/15 00:39:38;;;;;;;;;2.33;2.33;;;;;;;;5013444;28;45475;-72
2022/06/15 00:42:04;;;;;;;;;1.33;1.33;;;;;;;;5009103;28;46284;-72
2022/06/15 00:44:31;;;;;;;;;1.00;1.00;;;;;;;;5005117;28;45316;-72
2022/06/15 00:47:01;;;;;;;;;2.00;2.00;;;;;;;;5011722;28;45464;-72
2022/06/15 00:49:30;;;;;;;;;2.67;2.67;;;;;;;;5008279;28;45494;-72
2022/06/15 00:51:56;;;;;;;;;2.67;2.67;;;;;;;;5013783;28;45311;-72
2022/06/15 00:54:22;;;;;;;;;1.00;1.00;;;;;;;;5009525;28;45505;-72
2022/06/15 00:56:48;;;;;;;;;1.00;1.00;;;;;;;;5014241;28;45453;-72
2022/06/15 00:59:19;;;;;;;;;1.00;1.00;;;;;;;;5015780;28;45543;-72
2022/06/15 01:01:44;;;;;;;;;2.00;1.67;;;;;;;;5004582;28;46021;-72
2022/06/15 01:04:11;;;;;;;;;3.00;3.00;;;;;;;;5006671;28;45469;-72
2022/06/15 01:06:51;;;;;;;;;2.00;2.00;;;;;;;;5004242;28;45483;-72
2022/06/15 01:09:16;;;;;;;;;0.33;0.33;;;;;;;;5014653;28;45363;-72
2022/06/15 01:11:53;;;;;;;;;4.50;2.00;;;;;;;;5027425;28;46133;-72
2022/06/15 01:14:37;;;;;;;;;1.00;1.00;;;;;;;;5011706;28;45511;-72
2022/06/15 01:17:21;;;;;;;;;2.33;1.67;;;;;;;;5013501;28;45419;-72
2022/06/15 01:19:58;;;;;;;;;1.00;1.00;;;;;;;;5012881;28;45385;-72
2022/06/15 01:22:36;;;;;;;;;1.33;1.00;;;;;;;;5019440;28;46334;-72
2022/06/15 01:25:17;;;;;;;;;2.67;2.67;;;;;;;;5012654;28;45374;-72
2022/06/15 01:28:05;;;;;;;;;2.00;2.00;;;;;;;;5011129;28;45440;-72
2022/06/15 01:30:41;;;;;;;;;2.00;2.00;;;;;;;;5018164;28;45532;-72
2022/06/15 01:33:18;;;;;;;;;3.33;2.00;;;;;;;;5009513;28;46277;-72
2022/06/15 01:36:02;;;;;;;;;2.67;2.67;;;;;;;;5014319;28;45515;-73
2022/06/15 01:38:36;;;;;;;;;2.00;2.00;;;;;;;;5023696;28;45396;-72
2022/06/15 01:41:06;;;;;;;;;3.00;3.00;;;;;;;;5015643;28;45470;-72
2022/06/15 01:43:33;;;;;;;;;1.00;1.00;;;;;;;;5005182;28;46246;-73
2022/06/15 01:45:59;;;;;;;;;2.00;2.00;;;;;;;;5016104;28;45285;-72
2022/06/15 01:48:25;;;;;;;;;1.00;1.00;;;;;;;;5025138;28;45340;-72
2022/06/15 01:51:02;;;;;;;;;2.67;2.67;;;;;;;;5010270;28;45409;-72
2022/06/15 01:53:39;;;;;;;;;1.00;1.00;;;;;;;;5015484;28;46065;-72
2022/06/15 01:56:08;;;;;;;;;1.67;1.33;;;;;;;;5023503;28;45292;-72
2022/06/15 01:58:35;;;;;;;;;1.67;1.67;;;;;;;;5010541;28;45323;-71
2022/06/15 02:01:20;;;;;;;;;1.67;1.33;;;;;;;;5016125;28;45355;-72
2022/06/15 02:03:51;;;;;;;;;2.00;2.00;;;;;;;;5011721;28;45488;-72
2022/06/15 02:06:22;;;;;;;;;3.00;2.00;;;;;;;;5004200;28;45348;-72
2022/06/15 02:08:57;;;;;;;;;1.00;1.00;;;;;;;;5021322;28;45386;-72
2022/06/15 02:11:28;;;;;;;;;2.00;2.00;;;;;;;;5013245;28;45473;-72
2022/06/15 02:13:59;;;;;;;;;1.00;1.00;;;;;;;;5008469;28;45336;-72
2022/06/15 02:16:38;;;;;;;;;1.67;1.33;;;;;;;;5013362;28;45348;-72
2022/06/15 02:19:06;;;;;;;;;2.00;2.00;;;;;;;;5008511;28;45409;-72
2022/06/15 02:21:33;;;;;;;;;2.00;2.00;;;;;;;;5003148;28;45435;-72
2022/06/15 02:24:00;;;;;;;;;1.67;1.67;;;;;;;;5020932;28;45599;-72
2022/06/15 02:26:27;;;;;;;;;2.00;2.00;;;;;;;;5013034;28;45450;-72
2022/06/15 02:28:55;;;;;;;;;2.00;2.00;;;;;;;;5002967;28;45202;-72
2022/06/15 02:31:20;;;;;;;;;2.33;2.33;;;;;;;;5009535;28;45505;-72
2022/06/15 02:33:48;;;;;;;;;2.00;1.00;;;;;;;;5008299;28;45936;-72
2022/06/15 02:36:13;;;;;;;;;2.00;2.00;;;;;;;;5007226;28;45547;-72
2022/06/15 02:38:38;;;;;;;;;1.67;1.67;;;;;;;;5012943;28;45591;-71
2022/06/15 02:41:03;;;;;;;;;2.33;2.33;;;;;;;;5011836;28;45582;-72
2022/06/15 02:43:30;;;;;;;;;2.00;2.00;;;;;;;;5009710;28;46185;-72
2022/06/15 02:45:57;;;;;;;;;2.00;2.00;;;;;;;;5006702;28;45590;-72
2022/06/15 02:48:23;;;;;;;;;3.00;3.00;;;;;;;;5018056;28;45457;-72
2022/06/15 02:50:57;;;;;;;;;2.00;2.00;;;;;;;;5005734;28;45311;-72
2022/06/15 02:53:25;;;;;;;;;1.00;1.00;;;;;;;;5016265;28;46165;-72
2022/06/15 02:55:52;;;;;;;;;3.67;2.00;;;;;;;;5010738;28;45444;-72
2022/06/15 02:58:32;;;;;;;;;2.00;2.00;;;;;;;;5012351;28;45471;-72
2022/06/15 03:00:58;;;;;;;;;1.67;1.00;;;;;;;;5013111;28;45499;-72
2022/06/15 03:03:24;;;;;;;;;2.33;1.00;;;;;;;;5012394;28;46109;-72
2022/06/15 03:05:50;;;;;;;;;2.00;2.00;;;;;;;;5002856;28;45333;-72
2022/06/15 03:08:16;;;;;;;;;2.00;2.00;;;;;;;;5021828;28;45458;-72
2022/06/15 03:10:42;;;;;;;;;1.00;1.00;;;;;;;;5008606;28;45474;-72
2022/06/15 03:13:07;;;;;;;;;1.33;1.33;;;;;;;;5007532;28;45962;-72
2022/06/15 03:15:33;;;;;;;;;2.00;2.00;;;;;;;;5011916;28;45828;-72
2022/06/15 03:17:58;;;;;;;;;2.00;2.00;;;;;;;;5004764;28;45372;-72
2022/06/15 03:20:25;;;;;;;;;2.00;2.00;;;;;;;;5000014;28;45564;-72
2022/06/15 03:22:50;;;;;;;;;1.00;1.00;;;;;;;;5009294;28;46268;-72
2022/06/15 03:25:16;;;;;;;;;2.67;2.67;;;;;;;;5009001;28;45404;-72
2022/06/15 03:27:41;;;;;;;;;2.00;2.00;;;;;;;;5011451;28;45349;-72
2022/06/15 03:30:07;;;;;;;;;3.33;2.00;;;;;;;;5012202;28;45347;-72
2022/06/15 03:32:33;;;;;;;;;2.00;2.00;;;;;;;;5018208;28;47390;-72
2022/06/15 03:34:58;;;;;;;;;1.33;1.33;;;;;;;;5001126;28;45352;-72
2022/06/15 03:37:23;;;;;;;;;2.33;1.00;;;;;;;;5005394;28;45750;-72
2022/06/15 03:39:48;;;;;;;;;2.00;2.00;;;;;;;;5013644;28;45420;-72
2022/06/15 03:42:15;;;;;;;;;2.00;2.00;;;;;;;;5015232;28;46046;-72
2022/06/15 03:44:41;;;;;;;;;1.00;1.00;;;;;;;;5010203;28;45505;-72
2022/06/15 03:47:09;;;;;;;;;1.00;1.00;;;;;;;;5014150;28;45418;-72
2022/06/15 03:49:34;;;;;;;;;1.67;1.67;;;;;;;;5000147;28;45438;-72
2022/06/15 03:52:00;;;;;;;;;2.00;2.00;;;;;;;;5011744;28;46224;-72
2022/06/15 03:54:25;;;;;;;;;2.00;2.00;;;;;;;;5011813;28;45496;-72
2022/06/15 03:56:50;;;;;;;;;2.00;2.00;;;;;;;;5011735;28;45805;-72
2022/06/15 03:59:15;;;;;;;;;1.00;1.00;;;;;;;;5016515;28;45521;-72
2022/06/15 04:01:41;;;;;;;;;2.00;2.00;;;;;;;;5007818;28;45438;-72
2022/06/15 04:04:06;;;;;;;;;2.00;2.00;;;;;;;;5008397;28;45355;-72
2022/06/15 04:06:32;;;;;;;;;2.00;2.00;;;;;;;;5013672;28;45445;-72
2022/06/15 04:08:57;;;;;;;;;1.00;1.00;;;;;;;;5017092;28;45542;-72
2022/06/15 04:14:06;;;;;;;;;2.00;2.00;;;;;;;;5010582;28;45255;-72
2022/06/15 04:16:32;;;;;;;;;2.00;2.00;;;;;;;;5010152;28;45311;-72
2022/06/15 04:19:02;;;;;;;;;2.00;2.00;;;;;;;;5008071;28;45257;-72
2022/06/15 04:21:27;;;;;;;;;2.00;2.00;;;;;;;;5016578;28;46326;-72
2022/06/15 04:23:52;;;;;;;;;2.67;2.00;;;;;;;;5011671;28;45400;-72
2022/06/15 04:26:17;;;;;;;;;2.00;2.00;;;;;;;;5019248;28;45347;-72
2022/06/15 04:28:44;;;;;;;;;2.67;1.00;;;;;;;;5005872;28;45499;-72
2022/06/15 04:31:09;;;;;;;;;1.00;1.00;;;;;;;;5008490;28;45466;-72
2022/06/15 04:33:34;;;;;;;;;1.00;1.00;;;;;;;;5001561;28;45454;-72
2022/06/15 04:36:00;;;;;;;;;2.00;2.00;;;;;;;;5025477;28;45433;-72
2022/06/15 04:38:25;;;;;;;;;1.33;1.33;;;;;;;;5020055;28;45335;-72
2022/06/15 04:40:51;;;;;;;;;1.67;1.67;;;;;;;;5011932;28;45465;-72
2022/06/15 04:43:16;;;;;;;;;2.00;2.00;;;;;;;;5007936;28;45340;-72
2022/06/15 04:45:41;;;;;;;;;1.00;1.00;;;;;;;;5007880;28;45486;-72
2022/06/15 04:48:07;;;;;;;;;3.00;3.00;;;;;;;;5015137;28;46999;-72
2022/06/15 04:50:32;;;;;;;;;1.33;1.00;;;;;;;;5014649;28;47092;-72
2022/06/15 04:52:58;;;;;;;;;2.00;2.00;;;;;;;;5014097;28;45422;-72
2022/06/15 04:55:24;;;;;;;;;1.00;1.00;;;;;;;;5012985;28;45485;-72
2022/06/15 04:57:54;;;;;;;;;2.00;2.00;;;;;;;;5013641;28;45552;-72
2022/06/15 05:00:19;;;;;;;;;3.00;3.00;;;;;;;;5016532;28;46375;-72
2022/06/15 05:02:45;;;;;;;;;2.67;2.67;;;;;;;;5009956;28;45411;-72
2022/06/15 05:05:10;;;;;;;;;3.00;2.00;;;;;;;;5016992;28;45447;-72
2022/06/15 05:07:36;;;;;;;;;1.67;1.67;;;;;;;;5008902;28;45558;-72
2022/06/15 05:10:01;;;;;;;;;3.33;2.00;;;;;;;;5017534;28;46980;-72
2022/06/15 05:12:26;;;;;;;;;1.00;1.00;;;;;;;;5023663;28;45252;-72
2022/06/15 05:14:51;;;;;;;;;2.67;2.67;;;;;;;;5015352;28;45418;-72
2022/06/15 05:17:21;;;;;;;;;1.33;1.33;;;;;;;;5013758;28;45415;-72
2022/06/15 05:19:46;;;;;;;;;1.00;1.00;;;;;;;;5010485;28;46063;-72
2022/06/15 05:22:11;;;;;;;;;1.00;1.00;;;;;;;;5007889;28;45495;-72
2022/06/15 05:24:37;;;;;;;;;2.00;2.00;;;;;;;;5010707;28;45277;-72
2022/06/15 05:27:03;;;;;;;;;2.33;1.00;;;;;;;;5009255;28;45484;-72
2022/06/15 05:29:28;;;;;;;;;2.00;2.00;;;;;;;;5013969;28;46168;-72
2022/06/15 05:31:53;;;;;;;;;1.33;1.33;;;;;;;;5013239;28;45440;-72
2022/06/15 05:34:19;;;;;;;;;2.33;2.33;;;;;;;;5011562;28;48670;-72
2022/06/15 05:36:44;;;;;;;;;2.00;2.00;;;;;;;;5013530;28;45477;-72
2022/06/15 05:39:09;;;;;;;;;2.33;2.00;;;;;;;;5012734;28;45503;-72
2022/06/15 05:41:35;;;;;;;;;1.00;1.00;;;;;;;;5014001;28;46172;-72
2022/06/15 05:46:44;;;;;;;;;2.00;2.00;;;;;;;;5013605;28;45360;-72
2022/06/15 05:49:10;;;;;;;;;2.33;1.67;;;;;;;;5010291;28;46209;-72
2022/06/15 05:51:35;;;;;;;;;1.67;1.67;;;;;;;;5009376;28;45546;-72
2022/06/15 05:54:01;;;;;;;;;3.00;2.00;;;;;;;;5014894;28;45445;-72
2022/06/15 05:56:26;;;;;;;;;3.00;3.00;;;;;;;;5013041;28;45431;-72
2022/06/15 05:58:51;;;;;;;;;2.00;2.00;;;;;;;;5008807;28;46028;-72
2022/06/15 06:01:20;;;;;;;;;3.67;1.67;;;;;;;;5013305;28;45504;-72
2022/06/15 06:03:45;;;;;;;;;3.00;3.00;;;;;;;;5010143;28;45414;-72
2022/06/15 06:06:11;;;;;;;;;2.00;2.00;;;;;;;;5018078;28;45421;-72
2022/06/15 06:08:36;;;;;;;;;1.67;1.67;;;;;;;;5018655;28;47238;-72
2022/06/15 06:11:01;;;;;;;;;3.00;2.00;;;;;;;;5011420;28;45341;-72
2022/06/15 06:13:26;;;;;;;;;2.00;2.00;;;;;;;;5013040;28;45431;-72
2022/06/15 06:15:52;;;;;;;;;2.00;2.00;;;;;;;;5012608;28;45558;-72
2022/06/15 06:18:17;;;;;;;;;2.00;2.00;;;;;;;;5006521;28;46901;-72
2022/06/15 06:20:42;;;;;;;;;2.00;2.00;;;;;;;;5013584;28;45689;-75
2022/06/15 06:23:07;;;;;;;;;2.00;2.00;;;;;;;;5012363;28;45507;-75
2022/06/15 06:25:32;;;;;;;;;1.33;1.33;;;;;;;;5010113;28;45552;-75
2022/06/15 06:27:58;;;;;;;;;2.50;1.50;;;;;;;;5009722;28;45979;-74
2022/06/15 06:30:23;;;;;;;;;1.00;1.00;;;;;;;;5011287;28;45333;-72
2022/06/15 06:32:49;;;;;;;;;2.67;1.33;;;;;;;;5013256;28;45403;-72
2022/06/15 06:35:14;;;;;;;;;4.00;2.00;;;;;;;;5012834;28;45447;-73
2022/06/15 06:37:40;;;;;;;;;2.67;2.67;;;;;;;;5014142;28;45509;-73
2022/06/15 06:40:05;;;;;;;;;1.00;1.00;;;;;;;;5010561;28;45287;-72
2022/06/15 06:42:30;;;;;;;;;3.33;2.67;;;;;;;;5005310;28;45292;-72
2022/06/15 06:44:56;;;;;;;;;2.00;2.00;;;;;;;;5018875;28;45532;-72
2022/06/15 06:47:21;;;;;;;;;2.00;2.00;;;;;;;;5014783;28;45418;-72
2022/06/15 06:49:46;;;;;;;;;3.00;1.67;;;;;;;;5001913;28;45727;-71
2022/06/15 06:52:11;;;;;;;;;3.00;2.00;;;;;;;;5006475;28;45419;-70
2022/06/15 06:54:36;;;;;;;;;3.33;2.00;;;;;;;;5008499;28;45311;-71
2022/06/15 06:57:02;;;;;;;;;1.67;1.00;;;;;;;;5016238;28;45316;-71
2022/06/15 06:59:27;;;;;;;;;2.00;2.00;;;;;;;;5012709;28;45426;-71
2022/06/15 07:01:52;;;;;;;;;3.00;3.00;;;;;;;;5008840;28;45439;-72
2022/06/15 07:04:18;;;;;;;;;2.00;2.00;;;;;;;;5011288;28;45510;-73
2022/06/15 07:06:43;;;;;;;;;2.33;2.33;;;;;;;;5007756;28;46151;-72
2022/06/15 07:09:09;;;;;;;;;2.00;2.00;;;;;;;;5021633;28;45406;-72
2022/06/15 07:11:34;;;;;;;;;2.00;2.00;;;;;;;;5013044;28;45442;-73
2022/06/15 07:14:00;;;;;;;;;2.67;2.67;;;;;;;;5009430;28;45528;-72
2022/06/15 07:16:25;;;;;;;;;2.00;1.33;;;;;;;;5013902;28;45640;-72
2022/06/15 07:18:51;;;;;;;;;1.00;1.00;;;;;;;;5007323;28;45479;-72
2022/06/15 07:21:18;;;;;;;;;1.33;1.33;;;;;;;;5015609;28;45535;-72
2022/06/15 07:23:44;;;;;;;;;2.00;2.00;;;;;;;;5019827;28;45319;-73
2022/06/15 07:26:11;;;;;;;;;2.00;2.00;;;;;;;;5010154;28;47415;-72
2022/06/15 07:28:38;;;;;;;;;2.00;2.00;;;;;;;;5012696;28;45443;-72
2022/06/15 07:31:04;;;;;;;;;1.33;1.33;;;;;;;;5009945;28;45384;-72
2022/06/15 07:33:29;;;;;;;;;3.00;3.00;;;;;;;;5007085;28;45277;-73
2022/06/15 07:35:54;;;;;;;;;3.00;2.00;;;;;;;;5000559;28;46245;-73
2022/06/15 07:38:19;;;;;;;;;2.00;2.00;;;;;;;;5024856;28;45427;-73
2022/06/15 07:40:45;;;;;;;;;3.00;2.00;;;;;;;;5009699;28;45546;-73
2022/06/15 07:43:10;;;;;;;;;2.00;2.00;;;;;;;;5013342;28;45855;-72
2022/06/15 07:45:35;;;;;;;;;2.00;2.00;;;;;;;;5014953;28;46343;-73
2022/06/15 07:50:44;;;;;;;;;1.33;1.33;;;;;;;;5008738;28;45617;-72
2022/06/15 07:53:12;;;;;;;;;2.00;2.00;;;;;;;;5001281;28;45439;-72
2022/06/15 07:55:38;;;;;;;;;2.00;2.00;;;;;;;;5007932;28;45443;-72
2022/06/15 07:58:04;;;;;;;;;4.00;2.00;;;;;;;;5009579;28;45573;-73
2022/06/15 08:00:30;;;;;;;;;1.00;1.00;;;;;;;;5009271;28;45397;-72
2022/06/15 08:02:55;;;;;;;;;1.67;1.67;;;;;;;;5013750;28;45530;-72
2022/06/15 08:05:20;;;;;;;;;2.67;2.67;;;;;;;;5014001;28;46099;-73
2022/06/15 08:07:46;;;;;;;;;2.33;2.33;;;;;;;;5013050;28;45475;-73
2022/06/15 08:10:13;;;;;;;;;3.00;1.67;;;;;;;;5011879;28;48397;-73
2022/06/15 08:12:38;;;;;;;;;2.33;1.33;;;;;;;;5012095;28;45446;-72
2022/06/15 08:15:04;;;;;;;;;2.00;2.00;;;;;;;;5012101;28;45166;-72
2022/06/15 08:17:32;;;;;;;;;2.00;2.00;;;;;;;;5014429;28;45238;-73
2022/06/15 08:20:20;;;;;;;;;2.00;2.00;;;;;;;;5010047;28;45335;-72
2022/06/15 08:22:48;;;;;;;;;3.67;3.67;;;;;;;;5001620;28;45550;-72
2022/06/15 08:25:15;;;;;;;;;1.67;1.33;;;;;;;;5009209;28;47269;-72
2022/06/15 08:27:41;;;;;;;;;2.00;2.00;;;;;;;;5007458;28;45346;-72
2022/06/15 08:30:08;;;;;;;;;2.00;2.00;;;;;;;;5015840;28;45600;-73
2022/06/15 08:32:33;;;;;;;;;2.00;2.00;;;;;;;;4999915;28;45378;-72
2022/06/15 08:34:59;;;;;;;;;1.33;1.00;;;;;;;;5022101;28;47227;-73
2022/06/15 08:37:24;;;;;;;;;2.00;2.00;;;;;;;;5015929;28;45545;-72
2022/06/15 08:39:49;;;;;;;;;2.33;1.00;;;;;;;;5008393;28;45564;-72
2022/06/15 08:42:35;;;;;;;;;3.00;3.00;;;;;;;;5007898;28;45294;-72
2022/06/15 08:45:12;;;;;;;;;2.67;2.67;;;;;;;;5006808;28;46197;-72
2022/06/15 08:47:59;;;;;;;;;2.33;2.00;;;;;;;;5010100;28;45657;-72
2022/06/15 08:50:24;;;;;;;;;1.00;1.00;;;;;;;;5005998;28;45400;-72
2022/06/15 08:53:12;;;;;;;;;2.25;1.75;;;;;;;;5003695;28;45340;-72
2022/06/15 08:55:43;;;;;;;;;2.00;1.33;;;;;;;;5007553;28;45441;-72
2022/06/15 08:58:11;;;;;;;;;1.00;1.00;;;;;;;;5007882;28;45396;-72
2022/06/15 09:00:38;;;;;;;;;2.00;2.00;;;;;;;;5007570;28;45423;-72
2022/06/15 09:03:06;;;;;;;;;1.33;1.33;;;;;;;;5003406;28;45357;-72
2022/06/15 09:05:50;;;;;;;;;2.00;2.00;;;;;;;;5000525;28;46037;-72
2022/06/15 09:08:41;;;;;;;;;1.33;1.33;;;;;;;;5027620;28;45518;-72
2022/06/15 09:11:12;;;;;;;;;2.00;2.00;;;;;;;;5009682;28;45361;-72
2022/06/15 09:13:46;;;;;;;;;2.00;2.00;;;;;;;;5007290;28;45209;-72
2022/06/15 09:16:36;;;;;;;;;2.67;2.67;;;;;;;;5007219;28;46375;-72
2022/06/15 09:19:07;;;;;;;;;3.00;3.00;;;;;;;;5004771;28;45601;-72
2022/06/15 09:21:34;;;;;;;;;3.00;3.00;;;;;;;;5012292;28;45292;-73
2022/06/15 09:24:07;;;;;;;;;2.00;2.00;;;;;;;;5001784;28;45475;-72
2022/06/15 09:26:35;;;;;;;;;1.00;1.00;;;;;;;;5012677;28;46263;-73
2022/06/15 09:29:03;;;;;;;;;2.33;2.33;;;;;;;;5008301;28;45363;-72
2022/06/15 09:31:37;;;;;;;;;1.33;1.33;;;;;;;;5010262;28;45560;-72
2022/06/15 09:34:04;;;;;;;;;2.00;2.00;;;;;;;;5012368;28;45441;-72
2022/06/15 09:36:33;;;;;;;;;2.00;2.00;;;;;;;;5007413;28;46992;-73
2022/06/15 09:38:58;;;;;;;;;2.33;2.00;;;;;;;;5014051;28;45466;-72
2022/06/15 09:41:41;;;;;;;;;2.00;2.00;;;;;;;;5014879;28;45256;-73
2022/06/15 09:44:11;;;;;;;;;4.00;3.00;;;;;;;;5012619;28;45478;-73
2022/06/15 09:46:48;;;;;;;;;2.33;2.33;;;;;;;;5014698;28;47202;-72
2022/06/15 09:49:13;;;;;;;;;2.00;2.00;;;;;;;;5004363;28;45351;-72
2022/06/15 09:51:39;;;;;;;;;3.00;2.00;;;;;;;;5008779;28;45454;-73
2022/06/15 09:54:28;;;;;;;;;3.00;3.00;;;;;;;;5004051;28;45430;-72
2022/06/15 09:56:55;;;;;;;;;2.00;2.00;;;;;;;;5013295;28;47376;-73
2022/06/15 09:59:21;;;;;;;;;4.00;2.00;;;;;;;;5012923;28;45372;-71
2022/06/15 10:01:47;;;;;;;;;1.00;1.00;;;;;;;;5012699;28;45557;-73
2022/06/15 10:04:27;;;;;;;;;2.33;2.33;;;;;;;;5019454;28;45378;-72
2022/06/15 10:06:55;;;;;;;;;2.00;1.00;;;;;;;;5008677;28;46972;-73
2022/06/15 10:09:26;;;;;;;;;3.33;2.33;;;;;;;;5008992;28;45571;-72
2022/06/15 10:11:53;;;;;;;;;2.33;2.00;;;;;;;;5014578;28;45462;-72
2022/06/15 10:14:18;;;;;;;;;1.67;1.67;;;;;;;;5015317;28;45569;-72
2022/06/15 10:16:48;;;;;;;;;3.00;3.00;;;;;;;;5003046;28;45533;-72
2022/06/15 10:19:13;;;;;;;;;2.00;2.00;;;;;;;;5007665;28;45349;-72
2022/06/15 10:21:39;;;;;;;;;1.00;1.00;;;;;;;;5006476;28;45439;-72
2022/06/15 10:24:14;;;;;;;;;2.00;2.00;;;;;;;;5014295;28;45307;-72
2022/06/15 10:26:45;;;;;;;;;1.67;1.67;;;;;;;;5013065;28;45551;-72
2022/06/15 10:29:18;;;;;;;;;2.00;2.00;;;;;;;;5011899;28;45829;-72
2022/06/15 10:32:01;;;;;;;;;2.67;2.67;;;;;;;;5009455;28;45452;-72
2022/06/15 10:34:28;;;;;;;;;1.00;1.00;;;;;;;;5011594;28;45435;-72
2022/06/15 10:36:55;;;;;;;;;1.67;1.67;;;;;;;;5012170;28;46958;-72
2022/06/15 10:39:23;;;;;;;;;2.00;2.00;;;;;;;;5026697;28;45459;-72
2022/06/15 10:41:49;;;;;;;;;4.67;3.33;;;;;;;;5013563;28;45343;-72
2022/06/15 10:44:33;;;;;;;;;2.00;2.00;;;;;;;;5008639;28;45567;-72
2022/06/15 10:47:00;;;;;;;;;2.00;2.00;;;;;;;;5014879;28;46318;-72
2022/06/15 10:49:26;;;;;;;;;2.00;2.00;;;;;;;;5012735;28;45593;-72
2022/06/15 10:51:52;;;;;;;;;3.00;3.00;;;;;;;;5014194;28;45507;-72
2022/06/15 10:54:30;;;;;;;;;2.00;2.00;;;;;;;;5013156;28;45202;-71
2022/06/15 11:02:44;;;;;;;;;2.00;2.00;;;;;;;;4971753;28;45381;-72
2022/06/15 11:05:09;;;;;;;;;2.00;2.00;;;;;;;;4971931;28;45565;-72
2022/06/15 11:07:44;;;;;;;;;1.00;1.00;;;;;;;;4970654;28;46255;-72
2022/06/15 11:10:12;;;;;;;;;3.00;3.00;;;;;;;;4972163;28;45420;-71
2022/06/15 11:12:41;;;;;;;;;1.33;1.00;;;;;;;;4969938;28;45497;-73
2022/06/15 11:15:12;;;;;;;;;4.00;3.00;;;;;;;;4972284;28;45493;-74
2022/06/15 11:20:22;;;;;;;;;2.67;2.67;;;;;;;;4974160;28;45353;-69
2022/06/15 11:22:50;;;;;;;;;3.00;2.00;;;;;;;;4971459;28;45860;-69
2022/06/15 11:25:17;;;;;;;;;2.00;2.00;;;;;;;;4971944;28;45379;-69
2022/06/15 11:27:45;;;;;;;;;2.00;2.00;;;;;;;;4971936;28;45513;-68
2022/06/15 11:30:19;;;;;;;;;2.00;2.00;;;;;;;;4969421;28;45481;-70
2022/06/15 11:32:53;;;;;;;;;2.00;2.00;;;;;;;;4972451;28;45270;-69
2022/06/15 11:35:24;;;;;;;;;2.00;2.00;;;;;;;;4973169;28;45765;-70
2022/06/15 11:37:52;;;;;;;;;2.00;2.00;;;;;;;;5008268;28;45494;-72
2022/06/15 11:40:38;;;;;;;;;2.00;2.00;;;;;;;;5012381;28;45514;-72
2022/06/15 11:43:11;;;;;;;;;1.00;1.00;;;;;;;;4953360;28;45516;-72
2022/06/15 11:45:47;;;;;;;;;2.00;2.00;;;;;;;;4954090;28;45348;-72
2022/06/15 11:48:24;;;;;;;;;2.67;1.67;;;;;;;;4951810;28;46255;-72
2022/06/15 11:50:57;;;;;;;;;2.33;2.33;;;;;;;;4953449;28;45506;-71
2022/06/15 11:53:34;;;;;;;;;2.00;2.00;;;;;;;;4949221;28;45418;-71
2022/06/15 11:55:59;;;;;;;;;1.00;1.00;;;;;;;;4951327;28;45473;-71
2022/06/15 11:58:43;;;;;;;;;1.00;1.00;;;;;;;;4953096;28;45964;-71
2022/06/15 12:01:19;;;;;;;;;1.67;1.67;;;;;;;;4954871;28;45207;-72
2022/06/15 12:04:02;;;;;;;;;2.67;2.67;;;;;;;;4954134;28;45457;-72
2022/06/15 12:06:36;;;;;;;;;3.00;3.00;;;;;;;;4953265;28;45449;-72
2022/06/15 12:09:17;;;;;;;;;3.00;2.00;;;;;;;;4952077;28;45359;-72
2022/06/15 12:14:44;;;;;;;;;4.00;4.00;;;;;;;;4945401;28;45450;-71
2022/06/15 12:17:14;;;;;;;;;3.00;3.00;;;;;;;;4959816;28;45517;-72
2022/06/15 12:19:46;;;;;;;;;2.67;2.33;;;;;;;;4964818;28;45673;-72
2022/06/15 12:22:17;;;;;;;;;2.00;2.00;;;;;;;;5002367;28;45468;-72
2022/06/15 12:24:47;;;;;;;;;3.00;3.00;;;;;;;;5011772;28;45335;-71
2022/06/15 12:27:31;;;;;;;;;3.00;3.00;;;;;;;;5010973;28;45528;-72
2022/06/15 12:30:10;;;;;;;;;3.33;3.00;;;;;;;;5016935;28;45410;-72
2022/06/15 12:32:41;;;;;;;;;2.67;2.33;;;;;;;;5015240;28;45346;-72
2022/06/15 12:35:10;;;;;;;;;2.00;2.00;;;;;;;;5015634;28;45405;-71
2022/06/15 12:37:46;;;;;;;;;2.33;2.00;;;;;;;;5010903;28;45618;-71
2022/06/15 12:40:19;;;;;;;;;4.33;4.00;;;;;;;;5005798;28;45605;-72
2022/06/15 12:42:47;;;;;;;;;2.67;1.67;;;;;;;;5017547;28;45332;-71
2022/06/15 12:45:22;;;;;;;;;3.00;3.00;;;;;;;;5011036;28;45406;-72
2022/06/15 12:47:58;;;;;;;;;7.00;5.00;;;;;;;;5002927;28;45518;-72
2022/06/15 12:50:42;;;;;;;;;6.33;4.00;;;;;;;;5013868;28;45428;-71
2022/06/15 12:53:16;;;;;;;;;4.00;3.00;;;;;;;;5009427;28;45382;-72
2022/06/15 12:55:47;;;;;;;;;3.00;3.00;;;;;;;;5001612;28;45477;-72
2022/06/15 12:58:22;;;;;;;;;3.00;3.00;;;;;;;;5005046;28;45363;-72
2022/06/15 13:00:51;;;;;;;;;4.67;3.33;;;;;;;;5007510;28;47258;-72
2022/06/15 13:03:26;;;;;;;;;5.00;2.67;;;;;;;;5010246;28;45507;-72
2022/06/15 13:06:11;;;;;;;;;4.33;4.00;;;;;;;;5023626;28;45374;-72
2022/06/15 13:08:36;;;;;;;;;4.67;3.00;;;;;;;;5022077;28;46605;-71
2022/06/15 13:11:09;;;;;;;;;4.00;2.00;;;;;;;;5009606;28;45368;-72
2022/06/15 13:13:36;;;;;;;;;4.00;3.00;;;;;;;;5016536;28;45524;-72
2022/06/15 13:16:08;;;;;;;;;2.67;2.00;;;;;;;;5010935;28;45278;-72
2022/06/15 13:18:42;;;;;;;;;4.33;3.00;;;;;;;;5017095;28;45510;-72
2022/06/15 13:21:08;;;;;;;;;3.33;3.33;;;;;;;;5012098;28;46376;-72
2022/06/15 13:23:36;;;;;;;;;2.67;2.67;;;;;;;;5017322;28;45433;-72
2022/06/15 13:26:05;;;;;;;;;2.67;2.00;;;;;;;;5019440;28;45410;-71
2022/06/15 13:28:32;;;;;;;;;3.00;3.00;;;;;;;;5010305;28;45479;-72
2022/06/15 13:30:59;;;;;;;;;3.00;3.00;;;;;;;;5007748;28;47274;-71
2022/06/15 13:33:43;;;;;;;;;5.00;3.00;;;;;;;;5008207;28;45670;-72
2022/06/15 13:36:11;;;;;;;;;3.00;3.00;;;;;;;;5003472;28;45497;-72
2022/06/15 13:38:37;;;;;;;;;4.00;3.00;;;;;;;;5014884;28;45512;-72
2022/06/15 13:41:02;;;;;;;;;5.67;2.33;;;;;;;;5009919;28;46120;-72
2022/06/15 13:43:32;;;;;;;;;1.75;1.75;;;;;;;;5010718;28;45561;-72
2022/06/15 13:46:18;;;;;;;;;2.67;2.67;;;;;;;;5012850;28;45383;-72
2022/06/15 13:48:45;;;;;;;;;3.33;2.33;;;;;;;;5021019;28;45411;-72
2022/06/15 13:51:17;;;;;;;;;2.00;2.00;;;;;;;;5013716;28;47267;-72
2022/06/15 13:53:48;;;;;;;;;3.67;2.00;;;;;;;;5007599;28;45621;-72
2022/06/15 13:56:28;;;;;;;;;5.00;2.33;;;;;;;;5001884;28;45357;-71
2022/06/15 13:58:53;;;;;;;;;4.67;4.00;;;;;;;;5010081;28;45482;-72
2022/06/15 14:01:28;;;;;;;;;3.00;3.00;;;;;;;;5015094;28;47227;-72
2022/06/15 14:03:59;;;;;;;;;2.67;2.67;;;;;;;;5008030;28;45508;-71
2022/06/15 14:06:25;;;;;;;;;3.33;2.67;;;;;;;;5005913;28;46696;-72
2022/06/15 14:09:06;;;;;;;;;3.00;3.00;;;;;;;;5013146;28;45477;-72
2022/06/15 14:11:34;;;;;;;;;4.00;2.00;;;;;;;;5024936;28;46390;-72
2022/06/15 14:13:59;;;;;;;;;4.00;3.00;;;;;;;;5010100;28;45285;-72
2022/06/15 14:16:34;;;;;;;;;2.00;2.00;;;;;;;;5006151;28;45526;-72
2022/06/15 14:19:05;;;;;;;;;2.33;2.33;;;;;;;;5001860;28;45509;-71
2022/06/15 14:21:32;;;;;;;;;4.00;2.00;;;;;;;;5014161;28;45414;-72
2022/06/15 14:23:59;;;;;;;;;2.33;2.33;;;;;;;;5010918;28;45432;-72
2022/06/15 14:26:25;;;;;;;;;3.00;3.00;;;;;;;;5016423;28;45341;-72
2022/06/15 14:28:54;;;;;;;;;2.00;2.00;;;;;;;;5014739;28;45438;-72
2022/06/15 14:31:22;;;;;;;;;3.00;3.00;;;;;;;;5014380;28;45775;-71
2022/06/15 14:33:55;;;;;;;;;4.00;2.00;;;;;;;;5015704;28;45426;-71
2022/06/15 14:36:22;;;;;;;;;3.00;2.67;;;;;;;;5009695;28;45378;-71
2022/06/15 14:38:53;;;;;;;;;3.00;3.00;;;;;;;;5009300;28;45313;-72
2022/06/15 14:41:19;;;;;;;;;3.00;3.00;;;;;;;;5009186;28;45309;-72
2022/06/15 14:43:45;;;;;;;;;2.00;2.00;;;;;;;;5003987;28;45385;-71
2022/06/15 14:46:18;;;;;;;;;3.00;3.00;;;;;;;;5009849;28;45498;-72
2022/06/15 14:48:48;;;;;;;;;3.00;3.00;;;;;;;;5020936;28;45553;-71
2022/06/15 14:51:14;;;;;;;;;3.33;2.67;;;;;;;;5010375;28;45477;-72
2022/06/15 14:53:52;;;;;;;;;3.00;3.00;;;;;;;;5008991;28;45440;-72
2022/06/15 14:56:17;;;;;;;;;3.00;3.00;;;;;;;;5019856;28;45316;-72
2022/06/15 14:58:56;;;;;;;;;2.33;2.33;;;;;;;;5010975;28;45335;-72
2022/06/15 15:01:21;;;;;;;;;3.00;3.00;;;;;;;;5009570;28;47382;-72
2022/06/15 15:03:46;;;;;;;;;2.00;2.00;;;;;;;;5016833;28;45351;-71
2022/06/15 15:06:14;;;;;;;;;2.00;2.00;;;;;;;;5022110;28;45634;-72
2022/06/15 15:08:41;;;;;;;;;4.00;2.00;;;;;;;;5020388;28;45598;-71
2022/06/15 15:11:11;;;;;;;;;3.00;3.00;;;;;;;;5019828;28;46279;-72
2022/06/15 15:13:44;;;;;;;;;3.00;3.00;;;;;;;;5017624;28;45260;-72
2022/06/15 15:16:19;;;;;;;;;3.67;2.33;;;;;;;;5015385;28;45395;-71
2022/06/15 15:18:45;;;;;;;;;3.00;3.00;;;;;;;;5008673;28;45436;-70